Terminal Aerodrome Forecast
Issued by NWS Blacksburg, VA

Current Version | Previous Version | Text Only | Print | Product List | Glossary Off
Versions: 1 2 3 4 5 6 7 8 9 10 11 12 13 14 15 16 17 18 19 20 21 22 23 24 25 26 27 28 29 30 31 32 33 34 35 36 37 38 39 40 41 42 43 44 45 46 47 48 49 50

588
FTUS41 KRNK 231129
TAFBLF
TAF
KBLF 231129Z 2312/2412 12005KT P6SM -RA SCT015 OVC060
     FM231400 12007KT 6SM -RA OVC040
     FM231800 09006KT 2SM -RA BR OVC007
     FM232300 11005KT 6SM -RA OVC004=

USA.gov is the U.S. government's official web portal to all federal, state and local government web resources and services.